Münster Osnabrück Airport

METAR EDDG TAF EDDG
6 °C
°C
-
°C
20m
Âge
17:10:16
LT
16:10
UTC
0 ft

1.000

2.000

3.000

4.000

5.000

SCT 2.200
BKN 4.000
FEW 0
VFR
<?= Yii::t('app', 'Wind direction') ?> <?= Yii::t('app', 'of'); ?>
280°
17:15
Coucher de soleil
87%
Humidité
Cisaillement du vent
Fermé/neige
Portée visuelle RWY
Condition RWY
Visibilité vert.
Visibilité min.
CAVOK
Tendance
Correction
Rapport spécial
1015 hPa
QNH
METAR EDDG 011550Z AUTO 28016KT 9999 -SHRA SCT022 BKN040 FEW///TCU 06/04 Q1015 TEMPO 28015G25KT SHRA
Douches pluie légère
8 kt
8 kt
17:00
IFR
20 kt
18:00
IFR
20 kt
19:00
MVFR
15 kt
20:00
MVFR
15 kt
21:00
MVFR
15 kt
22:00
MVFR
15 kt
23:00
MVFR
12 kt
10 km+
Vue
4.000 ft
Base cloud
16 kt
Vent
metar-taf.com/EDDG

Metar-Taf.com

Décodeur visuel

Nous et des tiers suivons ton comportement Internet sur notre site Web à l'aide de cookies. Si tu continues, nous supposons que tu es d'accord avec notre Politique en matière de cookies.